sensor_id;sensor_type;location;lat;lon;timestamp;P1;durP1;ratioP1;P2;durP2;ratioP2
7334;SDS011;3708;42.632;23.378;2023-04-03T00:00:37;3.57;;;2.30;;
7334;SDS011;3708;42.632;23.378;2023-04-03T00:03:04;4.63;;;2.30;;
7334;SDS011;3708;42.632;23.378;2023-04-03T00:05:30;4.07;;;2.40;;
7334;SDS011;3708;42.632;23.378;2023-04-03T00:07:57;3.33;;;2.67;;
7334;SDS011;3708;42.632;23.378;2023-04-03T00:10:26;3.17;;;2.10;;
7334;SDS011;3708;42.632;23.378;2023-04-03T00:12:53;3.20;;;2.37;;
7334;SDS011;3708;42.632;23.378;2023-04-03T00:15:20;2.90;;;2.43;;
7334;SDS011;3708;42.632;23.378;2023-04-03T00:17:46;3.80;;;2.40;;
7334;SDS011;3708;42.632;23.378;2023-04-03T00:20:13;3.13;;;2.30;;
7334;SDS011;3708;42.632;23.378;2023-04-03T00:22:40;4.33;;;2.40;;
7334;SDS011;3708;42.632;23.378;2023-04-03T00:25:07;4.57;;;2.73;;
7334;SDS011;3708;42.632;23.378;2023-04-03T00:27:37;2.87;;;2.03;;
7334;SDS011;3708;42.632;23.378;2023-04-03T00:30:05;5.07;;;2.50;;
7334;SDS011;3708;42.632;23.378;2023-04-03T00:32:33;5.90;;;2.50;;
7334;SDS011;3708;42.632;23.378;2023-04-03T00:35:00;2.87;;;2.17;;
7334;SDS011;3708;42.632;23.378;2023-04-03T00:37:27;3.17;;;2.07;;
7334;SDS011;3708;42.632;23.378;2023-04-03T00:39:54;3.13;;;2.30;;
7334;SDS011;3708;42.632;23.378;2023-04-03T00:42:21;3.70;;;2.73;;
7334;SDS011;3708;42.632;23.378;2023-04-03T00:47:55;3.17;;;2.50;;
7334;SDS011;3708;42.632;23.378;2023-04-03T00:50:24;3.87;;;2.37;;
7334;SDS011;3708;42.632;23.378;2023-04-03T00:52:52;4.53;;;2.20;;
7334;SDS011;3708;42.632;23.378;2023-04-03T00:55:19;3.53;;;2.40;;
7334;SDS011;3708;42.632;23.378;2023-04-03T00:57:46;3.57;;;2.77;;
7334;SDS011;3708;42.632;23.378;2023-04-03T01:00:16;5.10;;;2.57;;
7334;SDS011;3708;42.632;23.378;2023-04-03T01:02:46;3.27;;;2.50;;
7334;SDS011;3708;42.632;23.378;2023-04-03T01:05:13;3.57;;;2.53;;
7334;SDS011;3708;42.632;23.378;2023-04-03T01:07:42;3.43;;;2.50;;
7334;SDS011;3708;42.632;23.378;2023-04-03T01:10:12;3.80;;;2.40;;
7334;SDS011;3708;42.632;23.378;2023-04-03T01:12:42;3.40;;;2.37;;
7334;SDS011;3708;42.632;23.378;2023-04-03T01:15:12;3.53;;;2.50;;
7334;SDS011;3708;42.632;23.378;2023-04-03T01:17:40;3.67;;;2.67;;
7334;SDS011;3708;42.632;23.378;2023-04-03T01:20:21;3.20;;;2.30;;
7334;SDS011;3708;42.632;23.378;2023-04-03T01:23:06;2.43;;;1.93;;
7334;SDS011;3708;42.632;23.378;2023-04-03T01:25:44;1.77;;;1.67;;
7334;SDS011;3708;42.632;23.378;2023-04-03T01:28:13;3.47;;;2.40;;
7334;SDS011;3708;42.632;23.378;2023-04-03T01:30:43;5.43;;;3.67;;
7334;SDS011;3708;42.632;23.378;2023-04-03T01:33:16;6.93;;;2.77;;
7334;SDS011;3708;42.632;23.378;2023-04-03T01:35:43;5.40;;;2.90;;
7334;SDS011;3708;42.632;23.378;2023-04-03T01:38:10;4.00;;;2.50;;
7334;SDS011;3708;42.632;23.378;2023-04-03T01:40:37;3.37;;;2.53;;
7334;SDS011;3708;42.632;23.378;2023-04-03T01:43:04;4.20;;;2.63;;
7334;SDS011;3708;42.632;23.378;2023-04-03T01:45:31;5.57;;;2.30;;
7334;SDS011;3708;42.632;23.378;2023-04-03T01:47:58;5.90;;;3.00;;
7334;SDS011;3708;42.632;23.378;2023-04-03T01:50:26;6.13;;;2.23;;
7334;SDS011;3708;42.632;23.378;2023-04-03T01:52:53;3.27;;;2.63;;
7334;SDS011;3708;42.632;23.378;2023-04-03T01:55:19;2.73;;;2.13;;
7334;SDS011;3708;42.632;23.378;2023-04-03T01:57:46;3.43;;;2.50;;
7334;SDS011;3708;42.632;23.378;2023-04-03T02:00:13;5.53;;;2.53;;
7334;SDS011;3708;42.632;23.378;2023-04-03T02:02:41;3.73;;;2.53;;
7334;SDS011;3708;42.632;23.378;2023-04-03T02:05:08;6.30;;;2.47;;
7334;SDS011;3708;42.632;23.378;2023-04-03T02:07:37;4.53;;;2.13;;
7334;SDS011;3708;42.632;23.378;2023-04-03T02:10:04;3.17;;;2.43;;
7334;SDS011;3708;42.632;23.378;2023-04-03T02:12:31;4.67;;;2.17;;
7334;SDS011;3708;42.632;23.378;2023-04-03T02:14:58;3.13;;;2.33;;
7334;SDS011;3708;42.632;23.378;2023-04-03T02:17:25;4.23;;;2.30;;
7334;SDS011;3708;42.632;23.378;2023-04-03T02:19:52;2.57;;;2.10;;
7334;SDS011;3708;42.632;23.378;2023-04-03T02:22:19;5.57;;;2.40;;
7334;SDS011;3708;42.632;23.378;2023-04-03T02:24:47;3.07;;;2.40;;
7334;SDS011;3708;42.632;23.378;2023-04-03T02:27:14;6.07;;;2.87;;
7334;SDS011;3708;42.632;23.378;2023-04-03T02:29:41;2.73;;;2.00;;
7334;SDS011;3708;42.632;23.378;2023-04-03T02:32:08;4.70;;;2.57;;
7334;SDS011;3708;42.632;23.378;2023-04-03T02:34:35;3.63;;;2.17;;
7334;SDS011;3708;42.632;23.378;2023-04-03T02:37:02;3.37;;;2.60;;
7334;SDS011;3708;42.632;23.378;2023-04-03T02:39:29;3.03;;;2.40;;
7334;SDS011;3708;42.632;23.378;2023-04-03T02:41:57;2.83;;;2.20;;
7334;SDS011;3708;42.632;23.378;2023-04-03T02:44:23;3.33;;;2.37;;
7334;SDS011;3708;42.632;23.378;2023-04-03T02:46:50;2.97;;;2.53;;
7334;SDS011;3708;42.632;23.378;2023-04-03T02:49:17;3.53;;;2.73;;
7334;SDS011;3708;42.632;23.378;2023-04-03T02:51:44;4.70;;;2.30;;
7334;SDS011;3708;42.632;23.378;2023-04-03T02:54:11;6.70;;;2.30;;
7334;SDS011;3708;42.632;23.378;2023-04-03T02:56:38;3.43;;;2.47;;
7334;SDS011;3708;42.632;23.378;2023-04-03T02:59:06;3.63;;;2.47;;
7334;SDS011;3708;42.632;23.378;2023-04-03T03:01:33;6.57;;;2.93;;
7334;SDS011;3708;42.632;23.378;2023-04-03T03:04:00;5.67;;;2.30;;
7334;SDS011;3708;42.632;23.378;2023-04-03T03:06:27;5.43;;;2.73;;
7334;SDS011;3708;42.632;23.378;2023-04-03T03:08:54;3.47;;;2.30;;
7334;SDS011;3708;42.632;23.378;2023-04-03T03:11:21;3.97;;;3.13;;
7334;SDS011;3708;42.632;23.378;2023-04-03T03:13:48;3.70;;;2.80;;
7334;SDS011;3708;42.632;23.378;2023-04-03T03:16:16;4.93;;;2.70;;
7334;SDS011;3708;42.632;23.378;2023-04-03T03:18:43;4.23;;;3.00;;
7334;SDS011;3708;42.632;23.378;2023-04-03T03:21:10;5.03;;;2.70;;
7334;SDS011;3708;42.632;23.378;2023-04-03T03:23:37;7.97;;;3.33;;
7334;SDS011;3708;42.632;23.378;2023-04-03T03:26:05;7.30;;;4.23;;
7334;SDS011;3708;42.632;23.378;2023-04-03T03:28:33;6.83;;;3.20;;
7334;SDS011;3708;42.632;23.378;2023-04-03T03:31:01;5.43;;;3.40;;
7334;SDS011;3708;42.632;23.378;2023-04-03T03:33:29;6.77;;;2.60;;
7334;SDS011;3708;42.632;23.378;2023-04-03T03:35:56;10.03;;;3.13;;
7334;SDS011;3708;42.632;23.378;2023-04-03T03:38:23;7.13;;;3.60;;
7334;SDS011;3708;42.632;23.378;2023-04-03T03:40:50;6.03;;;3.50;;
7334;SDS011;3708;42.632;23.378;2023-04-03T03:43:17;5.30;;;4.13;;
7334;SDS011;3708;42.632;23.378;2023-04-03T03:45:45;6.80;;;4.30;;
7334;SDS011;3708;42.632;23.378;2023-04-03T03:48:16;5.20;;;2.83;;
7334;SDS011;3708;42.632;23.378;2023-04-03T03:50:44;7.73;;;3.93;;
7334;SDS011;3708;42.632;23.378;2023-04-03T03:53:11;5.07;;;3.37;;
7334;SDS011;3708;42.632;23.378;2023-04-03T03:55:38;2.93;;;2.60;;
7334;SDS011;3708;42.632;23.378;2023-04-03T03:58:05;4.60;;;3.03;;
7334;SDS011;3708;42.632;23.378;2023-04-03T04:00:32;5.77;;;3.13;;
7334;SDS011;3708;42.632;23.378;2023-04-03T04:02:59;4.90;;;3.50;;
7334;SDS011;3708;42.632;23.378;2023-04-03T04:05:26;4.07;;;2.97;;
7334;SDS011;3708;42.632;23.378;2023-04-03T04:07:54;4.93;;;2.73;;
7334;SDS011;3708;42.632;23.378;2023-04-03T04:10:21;6.13;;;2.67;;
7334;SDS011;3708;42.632;23.378;2023-04-03T04:12:48;5.57;;;2.90;;
7334;SDS011;3708;42.632;23.378;2023-04-03T04:15:16;4.50;;;3.03;;
7334;SDS011;3708;42.632;23.378;2023-04-03T04:17:43;7.87;;;2.50;;
7334;SDS011;3708;42.632;23.378;2023-04-03T04:20:10;5.73;;;2.97;;
7334;SDS011;3708;42.632;23.378;2023-04-03T04:22:37;5.07;;;3.00;;
7334;SDS011;3708;42.632;23.378;2023-04-03T04:25:06;3.87;;;2.97;;
7334;SDS011;3708;42.632;23.378;2023-04-03T04:27:37;4.97;;;3.07;;
7334;SDS011;3708;42.632;23.378;2023-04-03T04:30:04;6.33;;;2.83;;
7334;SDS011;3708;42.632;23.378;2023-04-03T04:32:34;3.30;;;2.67;;
7334;SDS011;3708;42.632;23.378;2023-04-03T04:35:03;6.87;;;3.40;;
7334;SDS011;3708;42.632;23.378;2023-04-03T04:37:31;9.87;;;3.73;;
7334;SDS011;3708;42.632;23.378;2023-04-03T04:39:57;4.17;;;3.07;;
7334;SDS011;3708;42.632;23.378;2023-04-03T04:42:28;4.97;;;3.10;;
7334;SDS011;3708;42.632;23.378;2023-04-03T04:44:55;16.77;;;3.57;;
7334;SDS011;3708;42.632;23.378;2023-04-03T04:47:22;6.57;;;3.23;;
7334;SDS011;3708;42.632;23.378;2023-04-03T04:49:49;7.80;;;3.23;;
7334;SDS011;3708;42.632;23.378;2023-04-03T04:52:16;5.17;;;3.23;;
7334;SDS011;3708;42.632;23.378;2023-04-03T04:54:43;4.97;;;3.43;;
7334;SDS011;3708;42.632;23.378;2023-04-03T04:57:10;8.30;;;3.80;;
7334;SDS011;3708;42.632;23.378;2023-04-03T04:59:38;13.63;;;5.13;;
7334;SDS011;3708;42.632;23.378;2023-04-03T05:02:05;7.57;;;4.17;;
7334;SDS011;3708;42.632;23.378;2023-04-03T05:04:32;9.93;;;4.73;;
7334;SDS011;3708;42.632;23.378;2023-04-03T05:06:59;9.33;;;4.47;;
7334;SDS011;3708;42.632;23.378;2023-04-03T05:09:26;10.10;;;3.80;;
7334;SDS011;3708;42.632;23.378;2023-04-03T05:11:53;8.03;;;3.57;;
7334;SDS011;3708;42.632;23.378;2023-04-03T05:14:21;15.13;;;3.83;;
7334;SDS011;3708;42.632;23.378;2023-04-03T05:16:49;6.40;;;3.20;;
7334;SDS011;3708;42.632;23.378;2023-04-03T05:19:18;10.73;;;3.63;;
7334;SDS011;3708;42.632;23.378;2023-04-03T05:21:45;5.07;;;3.40;;
7334;SDS011;3708;42.632;23.378;2023-04-03T05:24:13;8.03;;;3.60;;
7334;SDS011;3708;42.632;23.378;2023-04-03T05:26:40;8.83;;;3.67;;
7334;SDS011;3708;42.632;23.378;2023-04-03T05:29:07;5.80;;;3.47;;
7334;SDS011;3708;42.632;23.378;2023-04-03T05:31:35;9.13;;;3.30;;
7334;SDS011;3708;42.632;23.378;2023-04-03T05:34:03;12.47;;;5.27;;
7334;SDS011;3708;42.632;23.378;2023-04-03T05:36:31;11.80;;;4.40;;
7334;SDS011;3708;42.632;23.378;2023-04-03T05:38:58;9.17;;;4.30;;
7334;SDS011;3708;42.632;23.378;2023-04-03T05:41:25;11.20;;;4.27;;
7334;SDS011;3708;42.632;23.378;2023-04-03T05:43:52;7.83;;;4.07;;
7334;SDS011;3708;42.632;23.378;2023-04-03T05:46:19;8.33;;;4.50;;
7334;SDS011;3708;42.632;23.378;2023-04-03T05:48:47;15.73;;;4.80;;
7334;SDS011;3708;42.632;23.378;2023-04-03T05:51:16;8.63;;;4.43;;
7334;SDS011;3708;42.632;23.378;2023-04-03T05:53:44;7.57;;;4.80;;
7334;SDS011;3708;42.632;23.378;2023-04-03T05:56:13;15.07;;;5.13;;
7334;SDS011;3708;42.632;23.378;2023-04-03T05:58:40;11.37;;;4.77;;
7334;SDS011;3708;42.632;23.378;2023-04-03T06:01:07;15.17;;;5.10;;
7334;SDS011;3708;42.632;23.378;2023-04-03T06:03:34;14.43;;;4.57;;
7334;SDS011;3708;42.632;23.378;2023-04-03T06:06:02;9.07;;;4.77;;
7334;SDS011;3708;42.632;23.378;2023-04-03T06:08:32;10.50;;;4.40;;
7334;SDS011;3708;42.632;23.378;2023-04-03T06:11:00;14.70;;;5.70;;
7334;SDS011;3708;42.632;23.378;2023-04-03T06:13:28;7.97;;;4.07;;
7334;SDS011;3708;42.632;23.378;2023-04-03T06:15:55;6.57;;;4.43;;
7334;SDS011;3708;42.632;23.378;2023-04-03T06:18:23;9.57;;;4.00;;
7334;SDS011;3708;42.632;23.378;2023-04-03T06:20:50;9.20;;;4.17;;
7334;SDS011;3708;42.632;23.378;2023-04-03T06:23:17;7.37;;;4.10;;
7334;SDS011;3708;42.632;23.378;2023-04-03T06:25:45;13.23;;;4.53;;
7334;SDS011;3708;42.632;23.378;2023-04-03T06:28:12;11.70;;;4.43;;
7334;SDS011;3708;42.632;23.378;2023-04-03T06:30:39;9.60;;;4.00;;
7334;SDS011;3708;42.632;23.378;2023-04-03T06:33:06;10.27;;;4.43;;
7334;SDS011;3708;42.632;23.378;2023-04-03T06:35:33;11.73;;;4.63;;
7334;SDS011;3708;42.632;23.378;2023-04-03T06:38:00;11.23;;;4.23;;
7334;SDS011;3708;42.632;23.378;2023-04-03T06:40:29;6.77;;;4.53;;
7334;SDS011;3708;42.632;23.378;2023-04-03T06:42:57;8.93;;;3.87;;
7334;SDS011;3708;42.632;23.378;2023-04-03T06:45:24;9.23;;;4.50;;
7334;SDS011;3708;42.632;23.378;2023-04-03T06:47:51;6.73;;;3.83;;
7334;SDS011;3708;42.632;23.378;2023-04-03T06:50:18;7.20;;;3.97;;
7334;SDS011;3708;42.632;23.378;2023-04-03T06:52:45;7.63;;;3.60;;
7334;SDS011;3708;42.632;23.378;2023-04-03T06:55:12;8.27;;;3.43;;
7334;SDS011;3708;42.632;23.378;2023-04-03T06:57:39;4.50;;;3.60;;
7334;SDS011;3708;42.632;23.378;2023-04-03T07:00:08;4.93;;;2.90;;
7334;SDS011;3708;42.632;23.378;2023-04-03T07:02:35;6.80;;;4.30;;
7334;SDS011;3708;42.632;23.378;2023-04-03T07:05:04;9.20;;;3.90;;
7334;SDS011;3708;42.632;23.378;2023-04-03T07:07:32;6.83;;;4.30;;
7334;SDS011;3708;42.632;23.378;2023-04-03T07:10:01;9.40;;;4.17;;
7334;SDS011;3708;42.632;23.378;2023-04-03T07:12:29;11.77;;;5.00;;
7334;SDS011;3708;42.632;23.378;2023-04-03T07:14:55;8.40;;;5.13;;
7334;SDS011;3708;42.632;23.378;2023-04-03T07:17:24;14.33;;;5.30;;
7334;SDS011;3708;42.632;23.378;2023-04-03T07:19:52;13.93;;;5.20;;
7334;SDS011;3708;42.632;23.378;2023-04-03T07:22:18;14.37;;;4.80;;
7334;SDS011;3708;42.632;23.378;2023-04-03T07:24:45;9.67;;;5.17;;
7334;SDS011;3708;42.632;23.378;2023-04-03T07:27:12;6.80;;;4.43;;
7334;SDS011;3708;42.632;23.378;2023-04-03T07:29:39;11.40;;;5.87;;
7334;SDS011;3708;42.632;23.378;2023-04-03T07:32:06;10.20;;;5.50;;
7334;SDS011;3708;42.632;23.378;2023-04-03T07:34:34;11.03;;;5.50;;
7334;SDS011;3708;42.632;23.378;2023-04-03T07:37:02;12.03;;;6.20;;
7334;SDS011;3708;42.632;23.378;2023-04-03T07:39:29;17.57;;;6.77;;
7334;SDS011;3708;42.632;23.378;2023-04-03T07:41:56;11.37;;;6.53;;
7334;SDS011;3708;42.632;23.378;2023-04-03T07:44:23;13.10;;;6.83;;
7334;SDS011;3708;42.632;23.378;2023-04-03T07:46:50;12.63;;;7.53;;
7334;SDS011;3708;42.632;23.378;2023-04-03T07:49:17;17.37;;;7.20;;
7334;SDS011;3708;42.632;23.378;2023-04-03T07:51:45;24.93;;;7.17;;
7334;SDS011;3708;42.632;23.378;2023-04-03T07:54:15;11.40;;;7.03;;
7334;SDS011;3708;42.632;23.378;2023-04-03T07:56:42;15.37;;;7.50;;
7334;SDS011;3708;42.632;23.378;2023-04-03T07:59:09;13.10;;;7.57;;
7334;SDS011;3708;42.632;23.378;2023-04-03T08:01:36;18.23;;;9.10;;
7334;SDS011;3708;42.632;23.378;2023-04-03T08:04:03;20.00;;;10.90;;
7334;SDS011;3708;42.632;23.378;2023-04-03T08:06:30;22.80;;;9.93;;
7334;SDS011;3708;42.632;23.378;2023-04-03T08:09:01;17.90;;;9.97;;
7334;SDS011;3708;42.632;23.378;2023-04-03T08:11:29;21.43;;;10.10;;
7334;SDS011;3708;42.632;23.378;2023-04-03T08:13:56;20.23;;;9.67;;
7334;SDS011;3708;42.632;23.378;2023-04-03T08:16:23;25.67;;;9.87;;
7334;SDS011;3708;42.632;23.378;2023-04-03T08:18:51;21.23;;;9.83;;
7334;SDS011;3708;42.632;23.378;2023-04-03T08:21:18;16.90;;;9.13;;
7334;SDS011;3708;42.632;23.378;2023-04-03T08:23:47;19.83;;;9.07;;
7334;SDS011;3708;42.632;23.378;2023-04-03T08:26:16;22.20;;;9.57;;
7334;SDS011;3708;42.632;23.378;2023-04-03T08:28:45;23.93;;;9.70;;
7334;SDS011;3708;42.632;23.378;2023-04-03T08:31:13;29.60;;;10.53;;
7334;SDS011;3708;42.632;23.378;2023-04-03T08:33:42;23.40;;;10.60;;
7334;SDS011;3708;42.632;23.378;2023-04-03T08:36:15;20.97;;;10.03;;
7334;SDS011;3708;42.632;23.378;2023-04-03T08:38:45;16.57;;;9.47;;
7334;SDS011;3708;42.632;23.378;2023-04-03T08:41:13;19.70;;;9.43;;
7334;SDS011;3708;42.632;23.378;2023-04-03T08:43:57;20.57;;;9.77;;
7334;SDS011;3708;42.632;23.378;2023-04-03T08:46:33;19.97;;;9.40;;
7334;SDS011;3708;42.632;23.378;2023-04-03T08:49:10;10.90;;;8.57;;
7334;SDS011;3708;42.632;23.378;2023-04-03T08:51:40;18.53;;;9.10;;
7334;SDS011;3708;42.632;23.378;2023-04-03T08:54:14;20.53;;;8.63;;
7334;SDS011;3708;42.632;23.378;2023-04-03T08:56:52;22.17;;;9.00;;
7334;SDS011;3708;42.632;23.378;2023-04-03T08:59:22;20.60;;;8.30;;
7334;SDS011;3708;42.632;23.378;2023-04-03T09:01:53;18.70;;;8.07;;
7334;SDS011;3708;42.632;23.378;2023-04-03T09:04:22;18.47;;;9.00;;
7334;SDS011;3708;42.632;23.378;2023-04-03T09:06:52;12.87;;;7.50;;
7334;SDS011;3708;42.632;23.378;2023-04-03T09:09:24;13.37;;;7.57;;
7334;SDS011;3708;42.632;23.378;2023-04-03T09:12:03;16.73;;;8.37;;
7334;SDS011;3708;42.632;23.378;2023-04-03T09:14:39;14.53;;;8.10;;
7334;SDS011;3708;42.632;23.378;2023-04-03T09:17:12;19.50;;;7.73;;
7334;SDS011;3708;42.632;23.378;2023-04-03T09:19:48;16.30;;;7.03;;
7334;SDS011;3708;42.632;23.378;2023-04-03T09:22:28;12.87;;;7.50;;
7334;SDS011;3708;42.632;23.378;2023-04-03T09:24:59;10.17;;;6.20;;
7334;SDS011;3708;42.632;23.378;2023-04-03T09:27:32;8.63;;;5.67;;
7334;SDS011;3708;42.632;23.378;2023-04-03T09:29:59;8.87;;;5.03;;
7334;SDS011;3708;42.632;23.378;2023-04-03T09:32:26;10.77;;;4.43;;
7334;SDS011;3708;42.632;23.378;2023-04-03T09:34:56;8.83;;;4.67;;
7334;SDS011;3708;42.632;23.378;2023-04-03T09:37:36;8.73;;;5.13;;
7334;SDS011;3708;42.632;23.378;2023-04-03T09:40:05;9.80;;;3.73;;
7334;SDS011;3708;42.632;23.378;2023-04-03T09:42:57;9.50;;;3.67;;
7334;SDS011;3708;42.632;23.378;2023-04-03T09:45:26;5.37;;;3.07;;
7334;SDS011;3708;42.632;23.378;2023-04-03T09:48:07;5.80;;;3.37;;
7334;SDS011;3708;42.632;23.378;2023-04-03T09:50:52;8.70;;;4.13;;
7334;SDS011;3708;42.632;23.378;2023-04-03T09:53:33;8.27;;;3.97;;
7334;SDS011;3708;42.632;23.378;2023-04-03T09:56:03;9.03;;;3.57;;
7334;SDS011;3708;42.632;23.378;2023-04-03T09:58:35;2.30;;;2.10;;
7334;SDS011;3708;42.632;23.378;2023-04-03T10:01:05;4.53;;;2.97;;
7334;SDS011;3708;42.632;23.378;2023-04-03T10:03:46;4.50;;;3.50;;
7334;SDS011;3708;42.632;23.378;2023-04-03T10:06:31;10.73;;;3.97;;
7334;SDS011;3708;42.632;23.378;2023-04-03T10:09:01;4.33;;;3.63;;
7334;SDS011;3708;42.632;23.378;2023-04-03T10:11:32;5.30;;;3.43;;
7334;SDS011;3708;42.632;23.378;2023-04-03T10:14:01;5.30;;;3.00;;
7334;SDS011;3708;42.632;23.378;2023-04-03T10:16:34;3.63;;;2.63;;
7334;SDS011;3708;42.632;23.378;2023-04-03T10:19:19;3.77;;;2.70;;
7334;SDS011;3708;42.632;23.378;2023-04-03T10:21:58;6.67;;;3.13;;
7334;SDS011;3708;42.632;23.378;2023-04-03T10:24:33;9.97;;;6.50;;
7334;SDS011;3708;42.632;23.378;2023-04-03T10:27:09;10.77;;;3.10;;
7334;SDS011;3708;42.632;23.378;2023-04-03T10:29:42;4.70;;;2.80;;
7334;SDS011;3708;42.632;23.378;2023-04-03T10:32:37;4.83;;;2.83;;
7334;SDS011;3708;42.632;23.378;2023-04-03T10:35:14;5.40;;;2.80;;
7334;SDS011;3708;42.632;23.378;2023-04-03T10:37:53;3.50;;;2.67;;
7334;SDS011;3708;42.632;23.378;2023-04-03T10:40:29;7.30;;;2.70;;
7334;SDS011;3708;42.632;23.378;2023-04-03T10:43:02;8.03;;;2.50;;
7334;SDS011;3708;42.632;23.378;2023-04-03T10:45:43;3.50;;;2.47;;
7334;SDS011;3708;42.632;23.378;2023-04-03T10:48:23;4.07;;;2.60;;
7334;SDS011;3708;42.632;23.378;2023-04-03T10:51:00;3.67;;;2.40;;
7334;SDS011;3708;42.632;23.378;2023-04-03T10:53:37;4.40;;;2.97;;
7334;SDS011;3708;42.632;23.378;2023-04-03T10:56:12;4.23;;;2.70;;
7334;SDS011;3708;42.632;23.378;2023-04-03T10:58:45;6.00;;;2.67;;
7334;SDS011;3708;42.632;23.378;2023-04-03T11:01:21;2.67;;;2.27;;
7334;SDS011;3708;42.632;23.378;2023-04-03T11:03:53;4.70;;;3.10;;
7334;SDS011;3708;42.632;23.378;2023-04-03T11:06:23;3.73;;;2.90;;
7334;SDS011;3708;42.632;23.378;2023-04-03T11:08:55;5.17;;;3.00;;
7334;SDS011;3708;42.632;23.378;2023-04-03T11:11:29;4.70;;;2.70;;
7334;SDS011;3708;42.632;23.378;2023-04-03T11:14:01;3.03;;;2.40;;
7334;SDS011;3708;42.632;23.378;2023-04-03T11:16:33;4.40;;;2.30;;
7334;SDS011;3708;42.632;23.378;2023-04-03T11:19:03;3.60;;;3.00;;
7334;SDS011;3708;42.632;23.378;2023-04-03T11:21:39;5.73;;;3.00;;
7334;SDS011;3708;42.632;23.378;2023-04-03T11:24:15;3.43;;;3.13;;
7334;SDS011;3708;42.632;23.378;2023-04-03T11:26:46;5.23;;;4.73;;
7334;SDS011;3708;42.632;23.378;2023-04-03T11:29:18;7.00;;;4.27;;
7334;SDS011;3708;42.632;23.378;2023-04-03T11:31:56;3.80;;;3.37;;
7334;SDS011;3708;42.632;23.378;2023-04-03T11:34:36;5.70;;;3.47;;
7334;SDS011;3708;42.632;23.378;2023-04-03T11:37:11;4.90;;;3.63;;
7334;SDS011;3708;42.632;23.378;2023-04-03T11:39:46;4.77;;;3.50;;
7334;SDS011;3708;42.632;23.378;2023-04-03T11:42:24;5.50;;;3.80;;
7334;SDS011;3708;42.632;23.378;2023-04-03T11:47:44;3.90;;;3.43;;
7334;SDS011;3708;42.632;23.378;2023-04-03T11:59:16;6.27;;;3.80;;
7334;SDS011;3708;42.632;23.378;2023-04-03T12:01:48;4.97;;;3.10;;
7334;SDS011;3708;42.632;23.378;2023-04-03T12:04:18;4.07;;;3.50;;
7334;SDS011;3708;42.632;23.378;2023-04-03T12:06:52;4.33;;;3.83;;
7334;SDS011;3708;42.632;23.378;2023-04-03T12:09:35;6.33;;;4.37;;
7334;SDS011;3708;42.632;23.378;2023-04-03T12:12:31;5.37;;;4.50;;
7334;SDS011;3708;42.632;23.378;2023-04-03T12:15:20;8.43;;;5.20;;
7334;SDS011;3708;42.632;23.378;2023-04-03T12:17:52;8.50;;;4.40;;
7334;SDS011;3708;42.632;23.378;2023-04-03T12:23:26;6.00;;;4.40;;
7334;SDS011;3708;42.632;23.378;2023-04-03T12:25:59;5.93;;;3.70;;
7334;SDS011;3708;42.632;23.378;2023-04-03T12:28:38;5.33;;;3.70;;
7334;SDS011;3708;42.632;23.378;2023-04-03T12:31:06;9.43;;;3.83;;
7334;SDS011;3708;42.632;23.378;2023-04-03T12:33:38;7.13;;;4.27;;
7334;SDS011;3708;42.632;23.378;2023-04-03T12:36:28;5.33;;;4.20;;
7334;SDS011;3708;42.632;23.378;2023-04-03T12:39:13;5.87;;;4.50;;
7334;SDS011;3708;42.632;23.378;2023-04-03T12:41:53;7.73;;;4.87;;
7334;SDS011;3708;42.632;23.378;2023-04-03T12:44:33;6.93;;;4.53;;
7334;SDS011;3708;42.632;23.378;2023-04-03T12:49:58;6.70;;;4.70;;
7334;SDS011;3708;42.632;23.378;2023-04-03T12:52:31;6.67;;;4.63;;
7334;SDS011;3708;42.632;23.378;2023-04-03T12:55:07;7.07;;;4.57;;
7334;SDS011;3708;42.632;23.378;2023-04-03T12:57:40;7.40;;;4.63;;
7334;SDS011;3708;42.632;23.378;2023-04-03T13:02:57;6.87;;;5.10;;
7334;SDS011;3708;42.632;23.378;2023-04-03T13:05:24;6.23;;;4.07;;
7334;SDS011;3708;42.632;23.378;2023-04-03T13:08:02;5.47;;;4.53;;
7334;SDS011;3708;42.632;23.378;2023-04-03T13:10:31;5.17;;;4.67;;
7334;SDS011;3708;42.632;23.378;2023-04-03T13:13:09;8.00;;;4.60;;
7334;SDS011;3708;42.632;23.378;2023-04-03T13:15:40;5.47;;;3.80;;
7334;SDS011;3708;42.632;23.378;2023-04-03T13:18:21;9.07;;;4.23;;
7334;SDS011;3708;42.632;23.378;2023-04-03T13:20:49;6.97;;;4.10;;
7334;SDS011;3708;42.632;23.378;2023-04-03T13:23:18;7.87;;;4.03;;
7334;SDS011;3708;42.632;23.378;2023-04-03T13:25:47;6.83;;;4.60;;
7334;SDS011;3708;42.632;23.378;2023-04-03T13:28:17;8.07;;;5.47;;
7334;SDS011;3708;42.632;23.378;2023-04-03T13:30:56;9.87;;;5.73;;
7334;SDS011;3708;42.632;23.378;2023-04-03T13:33:27;7.33;;;5.50;;
7334;SDS011;3708;42.632;23.378;2023-04-03T13:35:58;8.73;;;5.07;;
7334;SDS011;3708;42.632;23.378;2023-04-03T13:38:31;11.13;;;5.13;;
7334;SDS011;3708;42.632;23.378;2023-04-03T13:40:59;6.93;;;4.70;;
7334;SDS011;3708;42.632;23.378;2023-04-03T13:43:30;7.07;;;4.50;;
7334;SDS011;3708;42.632;23.378;2023-04-03T13:46:00;5.43;;;4.40;;
7334;SDS011;3708;42.632;23.378;2023-04-03T13:48:36;7.13;;;5.30;;
7334;SDS011;3708;42.632;23.378;2023-04-03T13:51:05;8.50;;;5.23;;
7334;SDS011;3708;42.632;23.378;2023-04-03T13:53:45;7.53;;;4.40;;
7334;SDS011;3708;42.632;23.378;2023-04-03T13:56:17;6.00;;;5.00;;
7334;SDS011;3708;42.632;23.378;2023-04-03T13:58:54;6.53;;;5.20;;
7334;SDS011;3708;42.632;23.378;2023-04-03T14:01:25;9.17;;;5.90;;
7334;SDS011;3708;42.632;23.378;2023-04-03T14:04:10;6.67;;;5.77;;
7334;SDS011;3708;42.632;23.378;2023-04-03T14:06:43;5.97;;;5.03;;
7334;SDS011;3708;42.632;23.378;2023-04-03T14:09:12;7.37;;;5.17;;
7334;SDS011;3708;42.632;23.378;2023-04-03T14:11:40;6.90;;;4.53;;
7334;SDS011;3708;42.632;23.378;2023-04-03T14:14:10;6.13;;;4.83;;
7334;SDS011;3708;42.632;23.378;2023-04-03T14:16:41;6.47;;;4.97;;
7334;SDS011;3708;42.632;23.378;2023-04-03T14:19:14;7.80;;;4.40;;
7334;SDS011;3708;42.632;23.378;2023-04-03T14:21:47;7.80;;;4.80;;
7334;SDS011;3708;42.632;23.378;2023-04-03T14:24:17;7.17;;;4.70;;
7334;SDS011;3708;42.632;23.378;2023-04-03T14:26:44;5.50;;;4.87;;
7334;SDS011;3708;42.632;23.378;2023-04-03T14:29:12;11.70;;;5.03;;
7334;SDS011;3708;42.632;23.378;2023-04-03T14:31:40;4.27;;;3.87;;
7334;SDS011;3708;42.632;23.378;2023-04-03T14:34:09;5.00;;;3.53;;
7334;SDS011;3708;42.632;23.378;2023-04-03T14:36:36;5.13;;;3.90;;
7334;SDS011;3708;42.632;23.378;2023-04-03T14:39:06;4.93;;;3.77;;
7334;SDS011;3708;42.632;23.378;2023-04-03T14:41:35;5.00;;;4.37;;
7334;SDS011;3708;42.632;23.378;2023-04-03T14:44:02;4.70;;;4.20;;
7334;SDS011;3708;42.632;23.378;2023-04-03T14:46:30;4.63;;;3.80;;
7334;SDS011;3708;42.632;23.378;2023-04-03T14:48:59;5.23;;;3.60;;
7334;SDS011;3708;42.632;23.378;2023-04-03T14:51:25;7.53;;;3.93;;
7334;SDS011;3708;42.632;23.378;2023-04-03T14:53:52;4.00;;;3.57;;
7334;SDS011;3708;42.632;23.378;2023-04-03T14:56:21;5.07;;;3.63;;
7334;SDS011;3708;42.632;23.378;2023-04-03T14:58:54;4.47;;;3.33;;
7334;SDS011;3708;42.632;23.378;2023-04-03T15:01:23;6.00;;;3.60;;
7334;SDS011;3708;42.632;23.378;2023-04-03T15:03:50;6.13;;;4.00;;
7334;SDS011;3708;42.632;23.378;2023-04-03T15:06:17;4.53;;;3.50;;
7334;SDS011;3708;42.632;23.378;2023-04-03T15:08:45;5.30;;;3.93;;
7334;SDS011;3708;42.632;23.378;2023-04-03T15:11:13;5.13;;;4.00;;
7334;SDS011;3708;42.632;23.378;2023-04-03T15:13:40;4.90;;;3.63;;
7334;SDS011;3708;42.632;23.378;2023-04-03T15:16:12;6.93;;;4.30;;
7334;SDS011;3708;42.632;23.378;2023-04-03T15:18:41;7.60;;;4.57;;
7334;SDS011;3708;42.632;23.378;2023-04-03T15:21:09;6.40;;;5.03;;
7334;SDS011;3708;42.632;23.378;2023-04-03T15:23:36;6.93;;;5.47;;
7334;SDS011;3708;42.632;23.378;2023-04-03T15:26:03;6.23;;;5.33;;
7334;SDS011;3708;42.632;23.378;2023-04-03T15:28:31;8.93;;;6.60;;
7334;SDS011;3708;42.632;23.378;2023-04-03T15:31:00;8.13;;;5.90;;
7334;SDS011;3708;42.632;23.378;2023-04-03T15:33:29;9.23;;;7.67;;
7334;SDS011;3708;42.632;23.378;2023-04-03T15:35:57;9.67;;;6.90;;
7334;SDS011;3708;42.632;23.378;2023-04-03T15:38:24;9.33;;;7.03;;